Air Resources Laboratory banner image
Air Resources Laboratory web site National Oceanic and Atmospheric Administration (NOAA)

md metar


KADW 131756Z AUTO 28014G21KT 10SM CLR M01/M15 A2977 RMK AO2 PK WND 27029/34
 SLP091 T10071154 11007 21061 57022 $=
KAPG 131758Z 30012G23KT 9SM SCT200 M02/M15 A2976 RMK AO2A SLPNO 57009 $=
KBWI 131754Z 28016KT 10SM FEW055 FEW180 SCT250 M01/M16 A2977 RMK AO2 SLP083
 T10111161 11011 21067 58013=
KDMH 131754Z AUTO M01/M17 A2978 RMK AO1 SLP084 T10061167 11006 21050 58002=
KFME 131745Z AUTO 27017G22KT 10SM CLR M01/M15 A2981 RMK AO1=
KHGR 131753Z 28018G24KT 10SM CLR M02/M16 A2974 RMK AO2 SLP091 T10221161 11022
 21067 58015=
KMTN 131745Z 27015G26KT 10SM SKC M01/M15 A2979=
KNHK 131752Z 26019G26KT 10SM FEW070 FEW260 01/M15 A2981 RMK AO2 PK WND
 26029/1702 SLP096 T00061150 10006 21056 56019=
KOXB 131753Z AUTO 27016G27KT 10SM CLR M01/M14 A2979 RMK AO2 PK WND 27028/1734
 SLP088 T10111139 11011 21056 58008=
KSBY 131754Z 28019G27KT 10SM CLR M01/M13 A2979 RMK AO2 PK WND 28028/1729 SLP091
 T10111133 11011 21056 58014=